createdAt,value
2023-04-18T00:01:50.614Z,7.13
2023-04-18T00:03:53.714Z,6.15
2023-04-18T00:05:58.009Z,7.22
2023-04-18T00:08:00.787Z,6.58
2023-04-18T00:10:03.773Z,6.62
2023-04-18T00:12:08.574Z,6.95
2023-04-18T00:14:11.915Z,7.17
2023-04-18T00:16:15.539Z,7.05
2023-04-18T00:18:18.378Z,6.78
2023-04-18T00:20:21.453Z,6.93
2023-04-18T00:22:24.244Z,6.35
2023-04-18T00:24:27.082Z,6.18
2023-04-18T00:26:29.905Z,6.66
2023-04-18T00:28:35.142Z,5.67
2023-04-18T00:30:37.976Z,6.22
2023-04-18T00:32:40.930Z,6.71
2023-04-18T00:34:43.842Z,6.37
2023-04-18T00:36:48.083Z,6.52
2023-04-18T00:38:50.963Z,6.61
2023-04-18T00:40:53.773Z,6.60
2023-04-18T00:42:57.047Z,5.80
2023-04-18T00:45:01.309Z,6.13
2023-04-18T00:47:04.188Z,6.50
2023-04-18T00:49:07.629Z,5.94
2023-04-18T00:51:11.061Z,6.43
2023-04-18T00:53:14.614Z,6.09
2023-04-18T00:55:18.264Z,6.53
2023-04-18T00:57:22.155Z,6.65
2023-04-18T00:59:25.063Z,6.72
2023-04-18T01:01:29.353Z,6.30
2023-04-18T01:03:33.043Z,6.68
2023-04-18T01:05:36.235Z,6.99
2023-04-18T01:07:41.985Z,6.92
2023-04-18T01:09:45.596Z,6.60
2023-04-18T01:11:48.898Z,6.95
2023-04-18T01:14:02.496Z,6.69
2023-04-18T01:16:05.983Z,6.91
2023-04-18T01:18:10.692Z,6.55
2023-04-18T01:20:16.808Z,6.63
2023-04-18T01:22:20.994Z,6.11
2023-04-18T01:24:26.789Z,6.33
2023-04-18T01:26:30.488Z,5.50
2023-04-18T01:28:37.717Z,6.52
2023-04-18T01:30:40.834Z,5.36
2023-04-18T01:32:45.442Z,6.54
2023-04-18T01:34:48.436Z,6.52
2023-04-18T01:36:51.290Z,6.39
2023-04-18T01:38:54.344Z,5.43
2023-04-18T01:40:59.724Z,6.34
2023-04-18T01:43:02.650Z,6.44
2023-04-18T01:45:07.409Z,6.56
2023-04-18T01:47:10.195Z,5.70
2023-04-18T01:49:13.099Z,6.67
2023-04-18T01:51:17.974Z,6.68
2023-04-18T01:53:20.863Z,6.01
2023-04-18T01:55:23.739Z,6.63
2023-04-18T01:57:27.986Z,6.51
2023-04-18T01:59:30.829Z,6.93
2023-04-18T02:01:33.676Z,6.84
2023-04-18T02:03:36.749Z,6.69
2023-04-18T02:05:39.706Z,6.31
2023-04-18T02:07:45.466Z,5.58
2023-04-18T02:09:48.256Z,6.67
2023-04-18T02:11:51.090Z,6.76
2023-04-18T02:13:55.337Z,6.53
2023-04-18T02:15:58.154Z,6.64
2023-04-18T02:18:01.181Z,6.09
2023-04-18T02:20:04.109Z,6.16
2023-04-18T02:22:06.868Z,6.52
2023-04-18T02:24:09.638Z,6.02
2023-04-18T02:26:12.428Z,5.31
2023-04-18T02:28:15.229Z,6.26
2023-04-18T02:30:19.559Z,6.41
2023-04-18T02:32:22.336Z,5.88
2023-04-18T02:34:25.209Z,6.56
2023-04-18T02:36:28.326Z,6.49
2023-04-18T02:38:31.820Z,6.53
2023-04-18T02:40:34.617Z,6.39
2023-04-18T02:42:37.454Z,6.37
2023-04-18T02:44:40.315Z,6.26
2023-04-18T02:46:44.515Z,5.32
2023-04-18T02:48:49.348Z,6.19
2023-04-18T02:50:53.977Z,6.05
2023-04-18T02:52:56.862Z,5.78
2023-04-18T02:55:09.596Z,6.40
2023-04-18T02:57:16.206Z,6.47
2023-04-18T02:59:43.038Z,6.35
2023-04-18T03:01:47.197Z,6.52
2023-04-18T03:03:53.588Z,6.50
2023-04-18T03:06:20.913Z,6.29
2023-04-18T03:08:24.289Z,5.91
2023-04-18T03:10:27.149Z,6.25
2023-04-18T03:12:29.968Z,6.39
2023-04-18T03:14:32.942Z,6.39
2023-04-18T03:16:35.871Z,5.81
2023-04-18T03:18:41.408Z,6.32
2023-04-18T03:20:44.287Z,5.52
2023-04-18T03:22:47.316Z,5.94
2023-04-18T03:24:53.748Z,6.42
2023-04-18T03:27:00.518Z,6.49
2023-04-18T03:29:03.832Z,6.34
2023-04-18T03:31:07.157Z,6.25
2023-04-18T03:33:14.381Z,6.27
2023-04-18T03:35:18.664Z,6.10
2023-04-18T03:37:21.547Z,5.82
2023-04-18T03:39:29.098Z,4.96
2023-04-18T03:41:32.575Z,6.27
2023-04-18T03:43:35.561Z,5.85
2023-04-18T03:45:38.558Z,5.49
2023-04-18T03:47:41.475Z,6.28
2023-04-18T03:49:44.299Z,5.73
2023-04-18T03:51:49.021Z,6.26
2023-04-18T03:53:51.985Z,6.18
2023-04-18T03:55:55.067Z,6.19
2023-04-18T03:58:01.765Z,6.26
2023-04-18T04:00:08.126Z,6.36
2023-04-18T04:02:18.423Z,6.41
2023-04-18T04:04:21.408Z,6.25
2023-04-18T04:06:24.490Z,6.40
2023-04-18T04:08:29.664Z,6.39
2023-04-18T04:10:33.816Z,6.42
2023-04-18T04:12:36.853Z,5.77
2023-04-18T04:14:39.880Z,6.27
2023-04-18T04:16:43.247Z,6.47
2023-04-18T04:18:48.592Z,6.33
2023-04-18T04:20:51.338Z,5.63
2023-04-18T04:23:07.386Z,6.25
2023-04-18T04:25:13.804Z,6.52
2023-04-18T04:27:20.524Z,6.38
2023-04-18T04:29:24.607Z,6.37
2023-04-18T04:31:28.768Z,6.55
2023-04-18T04:33:33.297Z,6.58
2023-04-18T04:35:39.364Z,5.64
2023-04-18T04:37:44.155Z,6.72
2023-04-18T04:40:00.614Z,5.77
2023-04-18T04:42:05.387Z,6.66
2023-04-18T04:44:17.573Z,6.73
2023-04-18T04:46:20.852Z,6.68
2023-04-18T04:48:25.838Z,6.86
2023-04-18T04:50:29.787Z,6.85
2023-04-18T04:52:33.089Z,6.39
2023-04-18T04:54:36.379Z,6.60
2023-04-18T04:56:41.916Z,6.63
2023-04-18T04:58:47.185Z,5.12
2023-04-18T05:00:59.716Z,6.35
2023-04-18T05:03:02.749Z,6.26
2023-04-18T05:05:06.544Z,6.25
2023-04-18T05:07:09.322Z,6.15
2023-04-18T05:09:12.052Z,6.02
2023-04-18T05:11:14.809Z,6.05
2023-04-18T05:13:17.585Z,6.15
2023-04-18T05:15:21.794Z,6.24
2023-04-18T05:17:24.669Z,6.15
2023-04-18T05:19:27.450Z,6.24
2023-04-18T05:21:31.264Z,5.94
2023-04-18T05:23:36.820Z,6.28
2023-04-18T05:25:39.651Z,5.53
2023-04-18T05:27:42.438Z,6.20
2023-04-18T05:29:46.551Z,6.38
2023-04-18T05:31:50.693Z,5.58
2023-04-18T05:33:53.408Z,6.44
2023-04-18T05:35:56.524Z,6.15
2023-04-18T05:37:59.467Z,6.38
2023-04-18T05:40:02.376Z,6.38
2023-04-18T05:42:05.294Z,6.42
2023-04-18T05:44:08.058Z,5.66
2023-04-18T05:46:13.267Z,6.46
2023-04-18T05:48:17.378Z,6.25
2023-04-18T05:50:20.640Z,6.34
2023-04-18T05:52:23.393Z,6.43
2023-04-18T05:54:26.122Z,6.27
2023-04-18T05:56:28.880Z,6.29
2023-04-18T05:58:31.698Z,6.36
2023-04-18T06:00:34.793Z,5.48
2023-04-18T06:02:37.703Z,6.36
2023-04-18T06:04:42.898Z,6.49
2023-04-18T06:06:46.096Z,6.47
2023-04-18T06:08:48.838Z,6.49
2023-04-18T06:10:51.557Z,6.38
2023-04-18T06:12:54.294Z,6.02
2023-04-18T06:14:57.064Z,6.07
2023-04-18T06:16:59.925Z,6.35
2023-04-18T06:19:03.316Z,6.21
2023-04-18T06:21:07.599Z,5.40
2023-04-18T06:23:10.315Z,5.25
2023-04-18T06:25:13.135Z,6.24
2023-04-18T06:27:30.091Z,6.28
2023-04-18T06:29:33.290Z,6.50
2023-04-18T06:31:36.167Z,6.32
2023-04-18T06:33:38.964Z,6.38
2023-04-18T06:35:42.025Z,6.32
2023-04-18T06:37:46.767Z,6.43
2023-04-18T06:39:49.562Z,6.49
2023-04-18T06:41:52.516Z,6.51
2023-04-18T06:44:04.657Z,6.54
2023-04-18T06:46:07.797Z,5.51
2023-04-18T06:48:10.824Z,5.75
2023-04-18T06:50:13.684Z,6.29
2023-04-18T06:52:16.428Z,6.28
2023-04-18T06:54:20.543Z,5.82
2023-04-18T06:56:23.566Z,6.30
2023-04-18T06:58:26.299Z,5.79
2023-04-18T07:00:29.127Z,5.98
2023-04-18T07:02:32.028Z,4.62
2023-04-18T07:04:35.068Z,6.26
2023-04-18T07:06:38.530Z,5.04
2023-04-18T07:08:41.896Z,6.03
2023-04-18T07:10:45.942Z,6.02
2023-04-18T07:12:48.716Z,6.32
2023-04-18T07:14:51.919Z,6.02
2023-04-18T07:16:54.792Z,6.11
2023-04-18T07:18:57.595Z,6.21
2023-04-18T07:21:00.472Z,6.25
2023-04-18T07:23:03.221Z,6.03
2023-04-18T07:25:06.628Z,5.95
2023-04-18T07:27:10.745Z,4.54
2023-04-18T07:29:13.503Z,6.23
2023-04-18T07:31:16.552Z,4.85
2023-04-18T07:33:19.576Z,6.31
2023-04-18T07:35:22.376Z,6.28
2023-04-18T07:37:25.194Z,3.89
2023-04-18T07:39:28.269Z,6.16
2023-04-18T07:41:31.018Z,6.45
2023-04-18T07:43:35.350Z,6.65
2023-04-18T07:45:38.493Z,6.71
2023-04-18T07:47:41.367Z,6.72
2023-04-18T07:49:44.356Z,6.70
2023-04-18T07:51:47.122Z,6.06
2023-04-18T07:53:49.848Z,6.72
2023-04-18T07:55:54.320Z,6.78
2023-04-18T07:57:57.035Z,7.09
2023-04-18T08:00:01.088Z,7.09
2023-04-18T08:02:03.999Z,7.26
2023-04-18T08:04:07.014Z,7.33
2023-04-18T08:06:09.934Z,7.29
2023-04-18T08:08:13.313Z,6.51
2023-04-18T08:10:16.048Z,7.25
2023-04-18T08:12:18.704Z,7.36
2023-04-18T08:14:21.431Z,7.54
2023-04-18T08:16:25.565Z,6.65
2023-04-18T08:18:28.278Z,7.33
2023-04-18T08:20:31.038Z,7.25
2023-04-18T08:22:34.373Z,6.81
2023-04-18T08:24:37.760Z,6.80
2023-04-18T08:26:40.420Z,7.51
2023-04-18T08:28:44.802Z,7.81
2023-04-18T08:30:50.327Z,8.11
2023-04-18T08:32:54.429Z,7.88
2023-04-18T08:34:57.192Z,8.22
2023-04-18T08:36:59.891Z,8.27
2023-04-18T08:39:02.605Z,8.45
2023-04-18T08:41:05.360Z,8.46
2023-04-18T08:43:12.246Z,7.75
2023-04-18T08:45:15.269Z,8.34
2023-04-18T08:47:19.252Z,8.39
2023-04-18T08:49:24.117Z,8.50
2023-04-18T08:51:30.724Z,7.38
2023-04-18T08:53:35.241Z,8.26
2023-04-18T08:55:38.525Z,8.43
2023-04-18T08:57:41.338Z,8.35
2023-04-18T08:59:48.278Z,7.78
2023-04-18T09:01:56.533Z,8.26
2023-04-18T09:03:59.412Z,8.33
2023-04-18T09:06:12.383Z,8.58
2023-04-18T09:08:25.140Z,8.60
2023-04-18T09:10:29.870Z,8.85
2023-04-18T09:12:32.690Z,8.96
2023-04-18T09:14:37.545Z,8.66
2023-04-18T09:16:47.214Z,8.61
2023-04-18T09:19:12.640Z,9.03
2023-04-18T09:21:20.771Z,8.93
2023-04-18T09:23:26.042Z,8.92
2023-04-18T09:25:34.394Z,9.30
2023-04-18T09:27:37.498Z,9.48
2023-04-18T09:29:46.178Z,9.47
2023-04-18T09:31:59.901Z,9.23
2023-04-18T09:34:03.099Z,8.96
2023-04-18T09:36:18.454Z,9.68
2023-04-18T09:38:39.918Z,9.62
2023-04-18T09:40:42.649Z,9.46
2023-04-18T09:42:46.054Z,9.78
2023-04-18T09:45:05.470Z,9.80
2023-04-18T09:47:08.655Z,9.83
2023-04-18T09:49:12.053Z,9.93
2023-04-18T09:51:16.973Z,9.55
2023-04-18T09:53:21.229Z,10.27
2023-04-18T09:55:25.462Z,10.40
2023-04-18T09:57:30.442Z,10.23
2023-04-18T09:59:54.924Z,10.17
2023-04-18T10:02:00.562Z,10.26
2023-04-18T10:04:06.738Z,10.28
2023-04-18T10:06:12.149Z,10.26
2023-04-18T10:08:16.065Z,10.00
2023-04-18T10:10:19.351Z,10.45
2023-04-18T10:12:24.314Z,10.45
2023-04-18T10:14:28.483Z,10.61
2023-04-18T10:16:34.749Z,10.98
2023-04-18T10:18:38.390Z,11.37
2023-04-18T10:20:42.257Z,11.17
2023-04-18T10:22:45.114Z,11.47
2023-04-18T10:24:54.025Z,11.92
2023-04-18T10:26:57.849Z,11.80
2023-04-18T10:29:02.550Z,11.64
2023-04-18T10:31:05.726Z,10.68
2023-04-18T10:33:31.791Z,11.86
2023-04-18T10:35:36.406Z,11.84
2023-04-18T10:37:50.588Z,12.15
2023-04-18T10:39:58.713Z,12.07
2023-04-18T10:42:02.683Z,11.92
2023-04-18T10:44:23.716Z,11.77
2023-04-18T10:46:32.254Z,11.47
2023-04-18T10:48:39.017Z,10.79
2023-04-18T10:51:14.954Z,11.64
2023-04-18T10:53:17.821Z,11.86
2023-04-18T10:55:27.214Z,11.87
2023-04-18T10:57:39.086Z,12.12
2023-04-18T10:59:51.853Z,11.94
2023-04-18T11:01:57.301Z,12.01
2023-04-18T11:04:00.726Z,12.22
2023-04-18T11:06:03.931Z,12.17
2023-04-18T11:08:22.366Z,12.18
2023-04-18T11:10:26.386Z,12.25
2023-04-18T11:12:32.260Z,12.41
2023-04-18T11:14:41.298Z,12.52
2023-04-18T11:16:45.515Z,12.54
2023-04-18T11:18:48.274Z,12.32
2023-04-18T11:20:52.356Z,12.78
2023-04-18T11:22:57.207Z,12.74
2023-04-18T11:25:00.819Z,12.75
2023-04-18T11:27:05.280Z,12.65
2023-04-18T11:29:08.287Z,12.63
2023-04-18T11:31:10.995Z,12.71
2023-04-18T11:33:16.565Z,12.69
2023-04-18T11:35:19.456Z,12.63
2023-04-18T11:37:22.720Z,10.52
2023-04-18T11:39:25.690Z,12.62
2023-04-18T11:41:28.495Z,12.69
2023-04-18T11:43:31.229Z,12.70
2023-04-18T11:45:34.489Z,12.76
2023-04-18T11:47:37.205Z,12.82
2023-04-18T11:49:42.108Z,12.57
2023-04-18T11:51:46.299Z,11.78
2023-04-18T11:53:49.051Z,12.11
2023-04-18T11:55:55.895Z,12.43
2023-04-18T11:57:59.725Z,12.64
2023-04-18T12:00:02.817Z,12.02
2023-04-18T12:02:16.800Z,12.50
2023-04-18T12:04:20.546Z,12.60
2023-04-18T12:06:25.296Z,12.71
2023-04-18T12:08:28.137Z,12.60
2023-04-18T12:10:31.039Z,12.52
2023-04-18T12:12:34.127Z,12.47
2023-04-18T12:14:36.918Z,12.02
2023-04-18T12:16:39.676Z,12.16
2023-04-18T12:18:42.649Z,12.40
2023-04-18T12:20:50.586Z,12.34
2023-04-18T12:22:57.815Z,11.59
2023-04-18T12:25:10.234Z,12.21
2023-04-18T12:27:13.101Z,12.25
2023-04-18T12:29:15.902Z,12.27
2023-04-18T12:31:19.027Z,11.78
2023-04-18T12:33:21.840Z,12.42
2023-04-18T12:35:25.653Z,12.76
2023-04-18T12:37:28.411Z,12.92
2023-04-18T12:39:32.478Z,13.08
2023-04-18T12:41:35.260Z,13.28
2023-04-18T12:43:38.002Z,13.39
2023-04-18T12:45:40.719Z,13.43
2023-04-18T12:47:45.207Z,13.11
2023-04-18T12:49:47.905Z,13.59
2023-04-18T12:51:50.628Z,13.83
2023-04-18T12:53:53.505Z,13.83
2023-04-18T12:55:57.792Z,13.82
2023-04-18T12:58:00.816Z,13.66
2023-04-18T13:00:05.696Z,13.40
2023-04-18T13:02:08.532Z,13.64
2023-04-18T13:04:13.083Z,13.81
2023-04-18T13:06:16.468Z,13.93
2023-04-18T13:08:19.194Z,14.06
2023-04-18T13:10:24.609Z,14.04
2023-04-18T13:12:30.456Z,14.14
2023-04-18T13:14:33.206Z,13.83
2023-04-18T13:16:36.114Z,14.09
2023-04-18T13:18:38.874Z,14.32
2023-04-18T13:20:41.602Z,14.41
2023-04-18T13:22:44.848Z,13.77
2023-04-18T13:24:47.753Z,14.43
2023-04-18T13:26:50.467Z,14.50
2023-04-18T13:28:54.563Z,14.45
2023-04-18T13:30:57.301Z,14.33
2023-04-18T13:33:00.186Z,14.49
2023-04-18T13:35:03.604Z,13.77
2023-04-18T13:37:06.473Z,14.45
2023-04-18T13:39:09.201Z,14.90
2023-04-18T13:41:13.276Z,15.00
2023-04-18T13:43:16.509Z,14.86
2023-04-18T13:45:20.984Z,14.70
2023-04-18T13:47:23.829Z,15.00
2023-04-18T13:49:26.672Z,15.07
2023-04-18T13:51:29.417Z,15.09
2023-04-18T13:53:32.194Z,14.57
2023-04-18T13:55:36.813Z,14.67
2023-04-18T13:57:39.552Z,13.89
2023-04-18T13:59:42.408Z,14.57
2023-04-18T14:01:46.598Z,13.92
2023-04-18T14:03:49.547Z,14.46
2023-04-18T14:05:52.367Z,14.44
2023-04-18T14:08:01.864Z,14.32
2023-04-18T14:10:05.174Z,13.77
2023-04-18T14:12:08.205Z,14.54
2023-04-18T14:14:10.976Z,14.72
2023-04-18T14:16:14.871Z,14.55
2023-04-18T14:18:21.677Z,14.62
2023-04-18T14:20:26.545Z,14.40
2023-04-18T14:22:29.306Z,14.41
2023-04-18T14:24:32.031Z,14.32
2023-04-18T14:26:34.745Z,14.09
2023-04-18T14:28:37.587Z,13.99
2023-04-18T14:30:41.297Z,13.99
2023-04-18T14:32:44.035Z,13.94
2023-04-18T14:34:48.200Z,13.90
2023-04-18T14:36:51.078Z,14.01
2023-04-18T14:38:54.673Z,13.96
2023-04-18T14:40:58.788Z,13.32
2023-04-18T14:43:01.543Z,13.89
2023-04-18T14:45:05.158Z,13.83
2023-04-18T14:47:07.949Z,13.89
2023-04-18T14:49:10.759Z,13.38
2023-04-18T14:51:16.119Z,13.79
2023-04-18T14:53:18.878Z,12.81
2023-04-18T14:55:21.702Z,13.54
2023-04-18T14:57:25.184Z,13.78
2023-04-18T14:59:28.843Z,13.18
2023-04-18T15:01:31.627Z,13.26
2023-04-18T15:03:34.634Z,13.75
2023-04-18T15:05:42.662Z,12.92
2023-04-18T15:07:47.745Z,13.84
2023-04-18T15:09:51.660Z,13.40
2023-04-18T15:11:54.429Z,13.80
2023-04-18T15:13:57.914Z,13.64
2023-04-18T15:16:01.403Z,13.37
2023-04-18T15:18:04.643Z,13.43
2023-04-18T15:20:08.671Z,13.49
2023-04-18T15:22:11.521Z,13.57
2023-04-18T15:24:16.657Z,13.53
2023-04-18T15:26:19.581Z,13.50
2023-04-18T15:28:22.935Z,13.40
2023-04-18T15:30:25.993Z,11.88
2023-04-18T15:32:28.774Z,11.75
2023-04-18T15:34:31.605Z,13.50
2023-04-18T15:36:35.887Z,13.62
2023-04-18T15:38:39.878Z,13.39
2023-04-18T15:40:44.616Z,13.26
2023-04-18T15:42:49.319Z,13.22
2023-04-18T15:44:52.312Z,13.27
2023-04-18T15:46:55.501Z,13.00
2023-04-18T15:48:58.220Z,12.41
2023-04-18T15:51:01.451Z,13.17
2023-04-18T15:53:04.221Z,13.17
2023-04-18T15:55:09.100Z,13.13
2023-04-18T15:57:13.344Z,13.07
2023-04-18T15:59:16.032Z,12.88
2023-04-18T16:01:19.510Z,12.74
2023-04-18T16:03:23.685Z,12.90
2023-04-18T16:05:26.640Z,13.02
2023-04-18T16:07:29.344Z,12.97
2023-04-18T16:09:32.516Z,12.57
2023-04-18T16:11:35.268Z,12.95
2023-04-18T16:13:39.356Z,12.84
2023-04-18T16:15:42.789Z,12.90
2023-04-18T16:17:45.644Z,13.01
2023-04-18T16:19:48.426Z,13.00
2023-04-18T16:21:51.171Z,13.11
2023-04-18T16:23:53.849Z,13.01
2023-04-18T16:25:56.570Z,13.11
2023-04-18T16:27:59.289Z,13.11
2023-04-18T16:30:03.639Z,13.06
2023-04-18T16:32:09.058Z,13.01
2023-04-18T16:34:11.849Z,13.05
2023-04-18T16:36:14.588Z,12.91
2023-04-18T16:38:18.360Z,12.88
2023-04-18T16:40:22.284Z,12.14
2023-04-18T16:42:25.019Z,12.93
2023-04-18T16:44:27.790Z,12.84
2023-04-18T16:46:32.329Z,12.77
2023-04-18T16:48:37.730Z,12.80
2023-04-18T16:50:40.517Z,12.68
2023-04-18T16:52:43.251Z,12.68
2023-04-18T16:54:46.019Z,12.71
2023-04-18T16:56:49.958Z,12.56
2023-04-18T16:58:52.723Z,12.72
2023-04-18T17:00:55.451Z,12.12
2023-04-18T17:02:59.579Z,12.78
2023-04-18T17:05:02.487Z,12.26
2023-04-18T17:07:05.366Z,12.64
2023-04-18T17:09:08.741Z,12.34
2023-04-18T17:11:11.428Z,12.62
2023-04-18T17:13:14.246Z,12.74
2023-04-18T17:15:19.384Z,12.64
2023-04-18T17:17:23.635Z,12.64
2023-04-18T17:19:27.772Z,12.60
2023-04-18T17:21:31.745Z,12.54
2023-04-18T17:23:34.563Z,11.44
2023-04-18T17:25:37.632Z,11.26
2023-04-18T17:27:41.348Z,12.42
2023-04-18T17:29:44.136Z,12.19
2023-04-18T17:31:47.030Z,12.12
2023-04-18T17:33:50.573Z,12.41
2023-04-18T17:35:54.783Z,12.36
2023-04-18T17:37:57.977Z,12.09
2023-04-18T17:40:02.726Z,11.55
2023-04-18T17:42:05.620Z,11.28
2023-04-18T17:44:10.215Z,12.03
2023-04-18T17:46:13.488Z,11.96
2023-04-18T17:48:16.382Z,12.02
2023-04-18T17:50:19.441Z,11.99
2023-04-18T17:52:23.531Z,12.05
2023-04-18T17:54:29.397Z,11.36
2023-04-18T17:56:32.438Z,11.77
2023-04-18T17:58:35.609Z,11.54
2023-04-18T18:00:38.417Z,10.95
2023-04-18T18:02:42.313Z,11.80
2023-04-18T18:04:45.595Z,11.84
2023-04-18T18:06:54.896Z,11.88
2023-04-18T18:08:59.012Z,11.91
2023-04-18T18:11:02.508Z,11.79
2023-04-18T18:13:05.357Z,11.01
2023-04-18T18:15:09.568Z,11.48
2023-04-18T18:17:12.583Z,11.82
2023-04-18T18:19:16.476Z,10.15
2023-04-18T18:21:20.053Z,11.70
2023-04-18T18:23:22.957Z,10.98
2023-04-18T18:25:28.496Z,11.64
2023-04-18T18:27:31.347Z,11.56
2023-04-18T18:29:34.117Z,11.64
2023-04-18T18:31:36.974Z,9.66
2023-04-18T18:33:39.812Z,11.31
2023-04-18T18:35:43.611Z,11.34
2023-04-18T18:37:46.399Z,11.48
2023-04-18T18:39:49.185Z,11.46
2023-04-18T18:41:53.427Z,11.48
2023-04-18T18:43:56.232Z,11.45
2023-04-18T18:45:59.120Z,11.36
2023-04-18T18:48:03.856Z,11.09
2023-04-18T18:50:07.250Z,10.16
2023-04-18T18:52:10.351Z,11.34
2023-04-18T18:54:13.179Z,10.86
2023-04-18T18:56:16.348Z,10.48
2023-04-18T18:58:20.686Z,11.48
2023-04-18T19:00:24.832Z,11.37
2023-04-18T19:02:27.804Z,11.38
2023-04-18T19:04:30.962Z,9.25
2023-04-18T19:06:33.757Z,11.14
2023-04-18T19:08:36.605Z,10.83
2023-04-18T19:10:39.488Z,9.31
2023-04-18T19:12:42.287Z,11.24
2023-04-18T19:14:46.898Z,9.69
2023-04-18T19:16:49.751Z,10.95
2023-04-18T19:18:52.834Z,11.21
2023-04-18T19:20:55.565Z,11.20
2023-04-18T19:22:58.231Z,11.30
2023-04-18T19:25:00.939Z,11.26
2023-04-18T19:27:03.836Z,9.33
2023-04-18T19:29:07.431Z,11.26
2023-04-18T19:31:11.550Z,11.17
2023-04-18T19:33:14.543Z,10.68
2023-04-18T19:35:17.430Z,11.20
2023-04-18T19:37:20.230Z,11.26
2023-04-18T19:39:23.007Z,11.25
2023-04-18T19:41:26.159Z,11.01
2023-04-18T19:43:29.020Z,10.18
2023-04-18T19:45:31.873Z,10.57
2023-04-18T19:47:36.809Z,11.06
2023-04-18T19:49:40.688Z,10.91
2023-04-18T19:51:43.595Z,10.72
2023-04-18T19:53:46.849Z,11.10
2023-04-18T19:55:49.722Z,10.28
2023-04-18T19:57:55.889Z,11.12
2023-04-18T19:59:58.708Z,11.03
2023-04-18T20:02:04.203Z,11.07
2023-04-18T20:04:10.143Z,11.02
2023-04-18T20:06:13.117Z,10.86
2023-04-18T20:08:15.919Z,11.10
2023-04-18T20:10:22.997Z,11.12
2023-04-18T20:12:25.858Z,9.68
2023-04-18T20:14:28.782Z,10.45
2023-04-18T20:16:32.746Z,8.92
2023-04-18T20:18:37.715Z,11.00
2023-04-18T20:20:42.054Z,10.70
2023-04-18T20:22:46.881Z,10.76
2023-04-18T20:24:49.730Z,10.65
2023-04-18T20:26:52.501Z,8.11
2023-04-18T20:28:55.299Z,11.07
2023-04-18T20:30:58.136Z,11.14
2023-04-18T20:33:01.033Z,11.07
2023-04-18T20:35:04.414Z,11.07
2023-04-18T20:37:09.879Z,10.89
2023-04-18T20:39:13.438Z,10.74
2023-04-18T20:41:18.117Z,10.99
2023-04-18T20:43:21.418Z,7.61
2023-04-18T20:45:24.593Z,10.97
2023-04-18T20:47:27.728Z,9.80
2023-04-18T20:49:30.554Z,10.67
2023-04-18T20:51:34.356Z,10.73
2023-04-18T20:53:38.476Z,10.20
2023-04-18T20:55:41.267Z,10.75
2023-04-18T20:57:44.193Z,10.52
2023-04-18T20:59:47.580Z,10.69
2023-04-18T21:01:50.455Z,10.53
2023-04-18T21:03:53.460Z,10.58
2023-04-18T21:05:56.396Z,10.72
2023-04-18T21:07:59.723Z,10.55
2023-04-18T21:10:03.966Z,9.25
2023-04-18T21:12:07.173Z,10.00
2023-04-18T21:14:09.946Z,10.52
2023-04-18T21:16:12.711Z,10.51
2023-04-18T21:18:15.462Z,10.39
2023-04-18T21:20:18.328Z,10.37
2023-04-18T21:22:21.154Z,10.23
2023-04-18T21:24:23.991Z,9.74
2023-04-18T21:26:28.614Z,10.40
2023-04-18T21:28:31.342Z,10.40
2023-04-18T21:30:34.112Z,10.39
2023-04-18T21:32:36.908Z,10.38
2023-04-18T21:34:39.685Z,8.25
2023-04-18T21:36:42.480Z,9.62
2023-04-18T21:38:45.908Z,10.38
2023-04-18T21:40:48.632Z,10.45
2023-04-18T21:42:52.779Z,10.45
2023-04-18T21:44:55.835Z,8.76
2023-04-18T21:46:58.594Z,10.36
2023-04-18T21:49:01.334Z,9.85
2023-04-18T21:51:04.205Z,10.23
2023-04-18T21:53:07.033Z,9.21
2023-04-18T21:55:10.436Z,9.91
2023-04-18T21:57:13.187Z,10.21
2023-04-18T21:59:17.342Z,10.29
2023-04-18T22:01:20.293Z,10.28
2023-04-18T22:03:23.321Z,10.17
2023-04-18T22:05:26.287Z,9.85
2023-04-18T22:07:29.543Z,9.50
2023-04-18T22:09:33.824Z,10.24
2023-04-18T22:11:36.789Z,10.21
2023-04-18T22:13:39.580Z,9.99
2023-04-18T22:15:43.838Z,9.56
2023-04-18T22:17:47.787Z,8.78
2023-04-18T22:19:50.707Z,9.96
2023-04-18T22:21:53.535Z,10.26
2023-04-18T22:23:56.301Z,9.65
2023-04-18T22:25:59.197Z,10.25
2023-04-18T22:28:02.292Z,9.90
2023-04-18T22:30:05.939Z,10.14
2023-04-18T22:32:10.047Z,9.89
2023-04-18T22:34:12.988Z,10.16
2023-04-18T22:36:15.808Z,9.93
2023-04-18T22:38:18.609Z,9.99
2023-04-18T22:40:21.562Z,9.99
2023-04-18T22:42:26.588Z,9.89
2023-04-18T22:44:29.340Z,10.04
2023-04-18T22:46:32.835Z,9.98
2023-04-18T22:48:37.190Z,9.93
2023-04-18T22:50:42.523Z,9.33
2023-04-18T22:52:45.430Z,9.76
2023-04-18T22:54:48.259Z,10.02
2023-04-18T22:56:51.351Z,9.35
2023-04-18T22:58:54.186Z,9.91
2023-04-18T23:00:57.131Z,9.36
2023-04-18T23:03:00.500Z,9.62
2023-04-18T23:05:05.869Z,9.95
2023-04-18T23:07:09.058Z,8.93
2023-04-18T23:09:11.880Z,9.87
2023-04-18T23:11:15.778Z,9.86
2023-04-18T23:13:18.555Z,9.80
2023-04-18T23:15:22.820Z,9.57
2023-04-18T23:17:25.834Z,8.94
2023-04-18T23:19:28.647Z,9.63
2023-04-18T23:21:32.974Z,9.34
2023-04-18T23:23:35.854Z,9.77
2023-04-18T23:25:38.670Z,9.77
2023-04-18T23:27:41.545Z,9.88
2023-04-18T23:29:44.377Z,9.90
2023-04-18T23:31:47.255Z,9.64
2023-04-18T23:33:50.059Z,9.37
2023-04-18T23:35:52.815Z,9.79
2023-04-18T23:37:57.530Z,8.61
2023-04-18T23:40:01.046Z,9.67
2023-04-18T23:42:03.987Z,9.65
2023-04-18T23:44:06.994Z,9.63
2023-04-18T23:46:09.811Z,9.64
2023-04-18T23:48:13.483Z,7.51
2023-04-18T23:50:16.359Z,9.63
2023-04-18T23:52:19.164Z,9.44
2023-04-18T23:54:23.296Z,9.55
2023-04-18T23:56:26.316Z,9.51
2023-04-18T23:58:29.363Z,9.62
